sensor_id;sensor_type;location;lat;lon;timestamp;P1;durP1;ratioP1;P2;durP2;ratioP2
16965;SDS011;8599;47.852;12.070;2024-02-23T00:01:21;1.17;;;0.67;;
16965;SDS011;8599;47.852;12.070;2024-02-23T00:03:50;0.53;;;0.50;;
16965;SDS011;8599;47.852;12.070;2024-02-23T00:06:18;0.87;;;0.47;;
16965;SDS011;8599;47.852;12.070;2024-02-23T00:08:46;2.20;;;0.60;;
16965;SDS011;8599;47.852;12.070;2024-02-23T00:11:12;2.83;;;0.40;;
16965;SDS011;8599;47.852;12.070;2024-02-23T00:13:40;0.30;;;0.30;;
16965;SDS011;8599;47.852;12.070;2024-02-23T00:16:08;0.40;;;0.40;;
16965;SDS011;8599;47.852;12.070;2024-02-23T00:18:36;0.23;;;0.20;;
16965;SDS011;8599;47.852;12.070;2024-02-23T00:21:04;0.30;;;0.30;;
16965;SDS011;8599;47.852;12.070;2024-02-23T00:23:30;0.30;;;0.30;;
16965;SDS011;8599;47.852;12.070;2024-02-23T00:25:57;0.30;;;0.30;;
16965;SDS011;8599;47.852;12.070;2024-02-23T00:28:24;0.23;;;0.23;;
16965;SDS011;8599;47.852;12.070;2024-02-23T00:30:51;0.33;;;0.33;;
16965;SDS011;8599;47.852;12.070;2024-02-23T00:33:19;0.20;;;0.20;;
16965;SDS011;8599;47.852;12.070;2024-02-23T00:35:46;0.20;;;0.20;;
16965;SDS011;8599;47.852;12.070;2024-02-23T00:38:13;2.60;;;0.33;;
16965;SDS011;8599;47.852;12.070;2024-02-23T00:40:40;0.30;;;0.30;;
16965;SDS011;8599;47.852;12.070;2024-02-23T00:43:06;0.43;;;0.43;;
16965;SDS011;8599;47.852;12.070;2024-02-23T00:45:33;2.00;;;0.40;;
16965;SDS011;8599;47.852;12.070;2024-02-23T00:48:00;0.30;;;0.30;;
16965;SDS011;8599;47.852;12.070;2024-02-23T00:50:28;0.83;;;0.57;;
16965;SDS011;8599;47.852;12.070;2024-02-23T00:52:55;0.53;;;0.43;;
16965;SDS011;8599;47.852;12.070;2024-02-23T00:55:22;0.83;;;0.80;;
16965;SDS011;8599;47.852;12.070;2024-02-23T00:57:50;0.73;;;0.60;;
16965;SDS011;8599;47.852;12.070;2024-02-23T01:00:17;0.60;;;0.40;;
16965;SDS011;8599;47.852;12.070;2024-02-23T01:02:44;1.30;;;0.30;;
16965;SDS011;8599;47.852;12.070;2024-02-23T01:05:11;0.20;;;0.20;;
16965;SDS011;8599;47.852;12.070;2024-02-23T01:07:39;0.37;;;0.30;;
16965;SDS011;8599;47.852;12.070;2024-02-23T01:10:06;0.40;;;0.30;;
16965;SDS011;8599;47.852;12.070;2024-02-23T01:12:34;0.30;;;0.30;;
16965;SDS011;8599;47.852;12.070;2024-02-23T01:15:02;0.30;;;0.30;;
16965;SDS011;8599;47.852;12.070;2024-02-23T01:17:30;0.20;;;0.20;;
16965;SDS011;8599;47.852;12.070;2024-02-23T01:19:57;0.20;;;0.20;;
16965;SDS011;8599;47.852;12.070;2024-02-23T01:22:24;1.50;;;0.37;;
16965;SDS011;8599;47.852;12.070;2024-02-23T01:24:52;0.20;;;0.20;;
16965;SDS011;8599;47.852;12.070;2024-02-23T01:27:19;0.30;;;0.30;;
16965;SDS011;8599;47.852;12.070;2024-02-23T01:29:47;0.20;;;0.20;;
16965;SDS011;8599;47.852;12.070;2024-02-23T01:32:13;0.20;;;0.20;;
16965;SDS011;8599;47.852;12.070;2024-02-23T01:34:40;0.10;;;0.10;;
16965;SDS011;8599;47.852;12.070;2024-02-23T01:37:07;0.20;;;0.20;;
16965;SDS011;8599;47.852;12.070;2024-02-23T01:39:34;0.20;;;0.20;;
16965;SDS011;8599;47.852;12.070;2024-02-23T01:42:02;0.20;;;0.20;;
16965;SDS011;8599;47.852;12.070;2024-02-23T01:44:29;0.20;;;0.20;;
16965;SDS011;8599;47.852;12.070;2024-02-23T01:46:56;0.20;;;0.20;;
16965;SDS011;8599;47.852;12.070;2024-02-23T01:49:23;0.30;;;0.30;;
16965;SDS011;8599;47.852;12.070;2024-02-23T01:51:54;0.90;;;0.20;;
16965;SDS011;8599;47.852;12.070;2024-02-23T01:54:21;0.20;;;0.20;;
16965;SDS011;8599;47.852;12.070;2024-02-23T01:56:48;0.20;;;0.20;;
16965;SDS011;8599;47.852;12.070;2024-02-23T01:59:17;0.30;;;0.30;;
16965;SDS011;8599;47.852;12.070;2024-02-23T02:01:45;0.20;;;0.20;;
16965;SDS011;8599;47.852;12.070;2024-02-23T02:04:12;0.20;;;0.20;;
16965;SDS011;8599;47.852;12.070;2024-02-23T02:06:38;0.20;;;0.20;;
16965;SDS011;8599;47.852;12.070;2024-02-23T02:09:05;0.20;;;0.20;;
16965;SDS011;8599;47.852;12.070;2024-02-23T02:11:32;0.20;;;0.20;;
16965;SDS011;8599;47.852;12.070;2024-02-23T02:13:59;0.20;;;0.20;;
16965;SDS011;8599;47.852;12.070;2024-02-23T02:16:27;0.10;;;0.10;;
16965;SDS011;8599;47.852;12.070;2024-02-23T02:18:54;0.20;;;0.20;;
16965;SDS011;8599;47.852;12.070;2024-02-23T02:21:21;0.80;;;0.20;;
16965;SDS011;8599;47.852;12.070;2024-02-23T02:23:50;0.20;;;0.20;;
16965;SDS011;8599;47.852;12.070;2024-02-23T02:26:16;0.20;;;0.20;;
16965;SDS011;8599;47.852;12.070;2024-02-23T02:28:44;0.73;;;0.30;;
16965;SDS011;8599;47.852;12.070;2024-02-23T02:31:11;0.30;;;0.30;;
16965;SDS011;8599;47.852;12.070;2024-02-23T02:33:40;0.53;;;0.20;;
16965;SDS011;8599;47.852;12.070;2024-02-23T02:36:07;0.20;;;0.20;;
16965;SDS011;8599;47.852;12.070;2024-02-23T02:38:34;0.97;;;0.40;;
16965;SDS011;8599;47.852;12.070;2024-02-23T02:41:01;0.20;;;0.20;;
16965;SDS011;8599;47.852;12.070;2024-02-23T02:43:28;0.20;;;0.20;;
16965;SDS011;8599;47.852;12.070;2024-02-23T02:45:55;0.20;;;0.20;;
16965;SDS011;8599;47.852;12.070;2024-02-23T02:48:22;0.23;;;0.23;;
16965;SDS011;8599;47.852;12.070;2024-02-23T02:50:50;0.20;;;0.20;;
16965;SDS011;8599;47.852;12.070;2024-02-23T02:53:17;0.20;;;0.20;;
16965;SDS011;8599;47.852;12.070;2024-02-23T02:55:44;0.30;;;0.30;;
16965;SDS011;8599;47.852;12.070;2024-02-23T02:58:11;0.20;;;0.20;;
16965;SDS011;8599;47.852;12.070;2024-02-23T03:00:38;0.17;;;0.17;;
16965;SDS011;8599;47.852;12.070;2024-02-23T03:03:06;0.20;;;0.20;;
16965;SDS011;8599;47.852;12.070;2024-02-23T03:05:33;0.20;;;0.20;;
16965;SDS011;8599;47.852;12.070;2024-02-23T03:08:01;0.20;;;0.20;;
16965;SDS011;8599;47.852;12.070;2024-02-23T03:10:28;0.20;;;0.20;;
16965;SDS011;8599;47.852;12.070;2024-02-23T03:12:55;0.20;;;0.20;;
16965;SDS011;8599;47.852;12.070;2024-02-23T03:15:22;0.10;;;0.10;;
16965;SDS011;8599;47.852;12.070;2024-02-23T03:17:48;0.37;;;0.30;;
16965;SDS011;8599;47.852;12.070;2024-02-23T03:20:15;0.40;;;0.40;;
16965;SDS011;8599;47.852;12.070;2024-02-23T03:22:42;0.20;;;0.20;;
16965;SDS011;8599;47.852;12.070;2024-02-23T03:25:10;0.83;;;0.30;;
16965;SDS011;8599;47.852;12.070;2024-02-23T03:27:37;0.20;;;0.20;;
16965;SDS011;8599;47.852;12.070;2024-02-23T03:30:05;0.20;;;0.20;;
16965;SDS011;8599;47.852;12.070;2024-02-23T03:32:33;0.17;;;0.17;;
16965;SDS011;8599;47.852;12.070;2024-02-23T03:35:03;0.23;;;0.23;;
16965;SDS011;8599;47.852;12.070;2024-02-23T03:37:31;0.20;;;0.20;;
16965;SDS011;8599;47.852;12.070;2024-02-23T03:39:58;0.20;;;0.20;;
16965;SDS011;8599;47.852;12.070;2024-02-23T03:42:27;0.20;;;0.20;;
16965;SDS011;8599;47.852;12.070;2024-02-23T03:44:54;0.20;;;0.20;;
16965;SDS011;8599;47.852;12.070;2024-02-23T03:47:21;0.20;;;0.20;;
16965;SDS011;8599;47.852;12.070;2024-02-23T03:49:47;0.20;;;0.20;;
16965;SDS011;8599;47.852;12.070;2024-02-23T03:52:14;2.47;;;0.30;;
16965;SDS011;8599;47.852;12.070;2024-02-23T03:54:41;0.43;;;0.30;;
16965;SDS011;8599;47.852;12.070;2024-02-23T03:57:08;0.63;;;0.20;;
16965;SDS011;8599;47.852;12.070;2024-02-23T03:59:37;0.90;;;0.30;;
16965;SDS011;8599;47.852;12.070;2024-02-23T04:02:04;1.90;;;0.30;;
16965;SDS011;8599;47.852;12.070;2024-02-23T04:04:30;0.30;;;0.30;;
16965;SDS011;8599;47.852;12.070;2024-02-23T04:06:57;0.30;;;0.30;;
16965;SDS011;8599;47.852;12.070;2024-02-23T04:09:24;0.30;;;0.20;;
16965;SDS011;8599;47.852;12.070;2024-02-23T04:11:51;0.33;;;0.33;;
16965;SDS011;8599;47.852;12.070;2024-02-23T04:14:18;2.17;;;0.47;;
16965;SDS011;8599;47.852;12.070;2024-02-23T04:16:46;0.40;;;0.40;;
16965;SDS011;8599;47.852;12.070;2024-02-23T04:19:13;0.63;;;0.20;;
16965;SDS011;8599;47.852;12.070;2024-02-23T04:21:39;0.20;;;0.20;;
16965;SDS011;8599;47.852;12.070;2024-02-23T04:24:06;0.97;;;0.30;;
16965;SDS011;8599;47.852;12.070;2024-02-23T04:26:33;0.20;;;0.20;;
16965;SDS011;8599;47.852;12.070;2024-02-23T04:29:00;0.20;;;0.20;;
16965;SDS011;8599;47.852;12.070;2024-02-23T04:31:27;0.50;;;0.20;;
16965;SDS011;8599;47.852;12.070;2024-02-23T04:33:55;0.20;;;0.20;;
16965;SDS011;8599;47.852;12.070;2024-02-23T04:36:22;1.03;;;0.40;;
16965;SDS011;8599;47.852;12.070;2024-02-23T04:38:49;0.20;;;0.20;;
16965;SDS011;8599;47.852;12.070;2024-02-23T04:41:19;0.37;;;0.37;;
16965;SDS011;8599;47.852;12.070;2024-02-23T04:43:46;0.40;;;0.40;;
16965;SDS011;8599;47.852;12.070;2024-02-23T04:46:13;0.70;;;0.37;;
16965;SDS011;8599;47.852;12.070;2024-02-23T04:48:40;2.23;;;0.70;;
16965;SDS011;8599;47.852;12.070;2024-02-23T04:51:09;2.90;;;1.10;;
16965;SDS011;8599;47.852;12.070;2024-02-23T04:53:36;0.77;;;0.37;;
16965;SDS011;8599;47.852;12.070;2024-02-23T04:56:03;0.23;;;0.23;;
16965;SDS011;8599;47.852;12.070;2024-02-23T04:58:30;2.00;;;0.50;;
16965;SDS011;8599;47.852;12.070;2024-02-23T05:00:57;1.13;;;0.50;;
16965;SDS011;8599;47.852;12.070;2024-02-23T05:03:24;0.30;;;0.30;;
16965;SDS011;8599;47.852;12.070;2024-02-23T05:05:51;0.33;;;0.33;;
16965;SDS011;8599;47.852;12.070;2024-02-23T05:08:20;0.30;;;0.30;;
16965;SDS011;8599;47.852;12.070;2024-02-23T05:10:49;0.30;;;0.27;;
16965;SDS011;8599;47.852;12.070;2024-02-23T05:13:16;2.40;;;1.23;;
16965;SDS011;8599;47.852;12.070;2024-02-23T05:15:43;0.60;;;0.60;;
16965;SDS011;8599;47.852;12.070;2024-02-23T05:18:10;0.53;;;0.43;;
16965;SDS011;8599;47.852;12.070;2024-02-23T05:20:36;0.50;;;0.30;;
16965;SDS011;8599;47.852;12.070;2024-02-23T05:23:03;0.20;;;0.20;;
16965;SDS011;8599;47.852;12.070;2024-02-23T05:25:31;0.20;;;0.20;;
16965;SDS011;8599;47.852;12.070;2024-02-23T05:27:58;0.43;;;0.43;;
16965;SDS011;8599;47.852;12.070;2024-02-23T05:30:25;0.53;;;0.53;;
16965;SDS011;8599;47.852;12.070;2024-02-23T05:32:56;0.40;;;0.40;;
16965;SDS011;8599;47.852;12.070;2024-02-23T05:35:23;2.67;;;0.50;;
16965;SDS011;8599;47.852;12.070;2024-02-23T05:37:50;0.50;;;0.50;;
16965;SDS011;8599;47.852;12.070;2024-02-23T05:40:16;0.40;;;0.40;;
16965;SDS011;8599;47.852;12.070;2024-02-23T05:42:45;0.40;;;0.40;;
16965;SDS011;8599;47.852;12.070;2024-02-23T05:45:11;0.60;;;0.60;;
16965;SDS011;8599;47.852;12.070;2024-02-23T05:47:38;0.60;;;0.60;;
16965;SDS011;8599;47.852;12.070;2024-02-23T05:50:07;0.50;;;0.47;;
16965;SDS011;8599;47.852;12.070;2024-02-23T05:52:35;0.97;;;0.67;;
16965;SDS011;8599;47.852;12.070;2024-02-23T05:55:02;0.50;;;0.50;;
16965;SDS011;8599;47.852;12.070;2024-02-23T05:57:29;1.50;;;0.60;;
16965;SDS011;8599;47.852;12.070;2024-02-23T05:59:58;2.30;;;0.50;;
16965;SDS011;8599;47.852;12.070;2024-02-23T06:02:25;1.13;;;0.47;;
16965;SDS011;8599;47.852;12.070;2024-02-23T06:04:51;1.07;;;0.70;;
16965;SDS011;8599;47.852;12.070;2024-02-23T06:07:18;1.10;;;0.30;;
16965;SDS011;8599;47.852;12.070;2024-02-23T06:09:52;0.30;;;0.30;;
16965;SDS011;8599;47.852;12.070;2024-02-23T06:12:18;0.43;;;0.43;;
16965;SDS011;8599;47.852;12.070;2024-02-23T06:14:45;1.30;;;1.03;;
16965;SDS011;8599;47.852;12.070;2024-02-23T06:17:14;0.80;;;0.80;;
16965;SDS011;8599;47.852;12.070;2024-02-23T06:19:41;0.50;;;0.50;;
16965;SDS011;8599;47.852;12.070;2024-02-23T06:22:08;0.43;;;0.40;;
16965;SDS011;8599;47.852;12.070;2024-02-23T06:24:37;0.47;;;0.20;;
16965;SDS011;8599;47.852;12.070;2024-02-23T06:27:04;0.45;;;0.35;;
16965;SDS011;8599;47.852;12.070;2024-02-23T06:29:31;0.47;;;0.30;;
16965;SDS011;8599;47.852;12.070;2024-02-23T06:31:57;4.37;;;0.40;;
16965;SDS011;8599;47.852;12.070;2024-02-23T06:34:27;0.67;;;0.50;;
16965;SDS011;8599;47.852;12.070;2024-02-23T06:36:54;0.53;;;0.40;;
16965;SDS011;8599;47.852;12.070;2024-02-23T06:39:21;0.90;;;0.60;;
16965;SDS011;8599;47.852;12.070;2024-02-23T06:41:48;1.10;;;1.00;;
16965;SDS011;8599;47.852;12.070;2024-02-23T06:44:15;1.03;;;0.70;;
16965;SDS011;8599;47.852;12.070;2024-02-23T06:46:41;0.70;;;0.50;;
16965;SDS011;8599;47.852;12.070;2024-02-23T06:49:09;3.70;;;0.57;;
16965;SDS011;8599;47.852;12.070;2024-02-23T06:51:37;0.97;;;0.40;;
16965;SDS011;8599;47.852;12.070;2024-02-23T06:54:05;1.90;;;0.60;;
16965;SDS011;8599;47.852;12.070;2024-02-23T06:56:33;3.13;;;0.80;;
16965;SDS011;8599;47.852;12.070;2024-02-23T06:59:00;2.50;;;1.10;;
16965;SDS011;8599;47.852;12.070;2024-02-23T07:01:26;1.10;;;0.50;;
16965;SDS011;8599;47.852;12.070;2024-02-23T07:03:53;3.30;;;0.50;;
16965;SDS011;8599;47.852;12.070;2024-02-23T07:06:20;0.87;;;0.43;;
16965;SDS011;8599;47.852;12.070;2024-02-23T07:08:48;0.47;;;0.40;;
16965;SDS011;8599;47.852;12.070;2024-02-23T07:11:15;0.57;;;0.57;;
16965;SDS011;8599;47.852;12.070;2024-02-23T07:13:42;4.53;;;0.70;;
16965;SDS011;8599;47.852;12.070;2024-02-23T07:16:09;3.53;;;0.87;;
16965;SDS011;8599;47.852;12.070;2024-02-23T07:18:36;3.03;;;0.80;;
16965;SDS011;8599;47.852;12.070;2024-02-23T07:21:03;2.33;;;0.90;;
16965;SDS011;8599;47.852;12.070;2024-02-23T07:23:30;0.50;;;0.50;;
16965;SDS011;8599;47.852;12.070;2024-02-23T07:25:58;2.83;;;0.80;;
16965;SDS011;8599;47.852;12.070;2024-02-23T07:28:25;0.87;;;0.70;;
16965;SDS011;8599;47.852;12.070;2024-02-23T07:30:52;1.60;;;1.20;;
16965;SDS011;8599;47.852;12.070;2024-02-23T07:33:19;3.57;;;1.20;;
16965;SDS011;8599;47.852;12.070;2024-02-23T07:35:46;0.40;;;0.40;;
16965;SDS011;8599;47.852;12.070;2024-02-23T07:38:13;2.80;;;1.00;;
16965;SDS011;8599;47.852;12.070;2024-02-23T07:40:40;19.30;;;4.33;;
16965;SDS011;8599;47.852;12.070;2024-02-23T07:43:08;5.73;;;1.70;;
16965;SDS011;8599;47.852;12.070;2024-02-23T07:45:36;3.83;;;1.80;;
16965;SDS011;8599;47.852;12.070;2024-02-23T07:48:03;11.87;;;4.23;;
16965;SDS011;8599;47.852;12.070;2024-02-23T07:50:30;1.53;;;1.30;;
16965;SDS011;8599;47.852;12.070;2024-02-23T07:52:57;10.03;;;3.63;;
16965;SDS011;8599;47.852;12.070;2024-02-23T07:55:24;9.80;;;3.60;;
16965;SDS011;8599;47.852;12.070;2024-02-23T07:57:51;9.97;;;3.63;;
16965;SDS011;8599;47.852;12.070;2024-02-23T08:00:19;3.50;;;1.63;;
16965;SDS011;8599;47.852;12.070;2024-02-23T08:02:46;8.73;;;3.67;;
16965;SDS011;8599;47.852;12.070;2024-02-23T08:05:12;16.60;;;4.13;;
16965;SDS011;8599;47.852;12.070;2024-02-23T08:07:39;7.67;;;2.60;;
16965;SDS011;8599;47.852;12.070;2024-02-23T08:10:06;5.70;;;2.67;;
16965;SDS011;8599;47.852;12.070;2024-02-23T08:12:34;5.00;;;1.33;;
16965;SDS011;8599;47.852;12.070;2024-02-23T08:15:01;4.60;;;2.53;;
16965;SDS011;8599;47.852;12.070;2024-02-23T08:17:30;1.50;;;1.40;;
16965;SDS011;8599;47.852;12.070;2024-02-23T08:19:56;5.50;;;3.30;;
16965;SDS011;8599;47.852;12.070;2024-02-23T08:22:23;4.03;;;1.70;;
16965;SDS011;8599;47.852;12.070;2024-02-23T08:24:50;3.87;;;0.80;;
16965;SDS011;8599;47.852;12.070;2024-02-23T08:27:17;2.10;;;0.83;;
16965;SDS011;8599;47.852;12.070;2024-02-23T08:29:44;4.10;;;1.57;;
16965;SDS011;8599;47.852;12.070;2024-02-23T08:32:10;8.93;;;4.60;;
16965;SDS011;8599;47.852;12.070;2024-02-23T08:34:39;7.17;;;2.83;;
16965;SDS011;8599;47.852;12.070;2024-02-23T08:37:06;12.53;;;4.70;;
16965;SDS011;8599;47.852;12.070;2024-02-23T08:39:33;9.53;;;3.30;;
16965;SDS011;8599;47.852;12.070;2024-02-23T08:42:02;18.77;;;5.00;;
16965;SDS011;8599;47.852;12.070;2024-02-23T08:44:29;10.67;;;3.17;;
16965;SDS011;8599;47.852;12.070;2024-02-23T08:46:55;18.07;;;3.70;;
16965;SDS011;8599;47.852;12.070;2024-02-23T08:49:22;4.13;;;1.43;;
16965;SDS011;8599;47.852;12.070;2024-02-23T08:51:50;0.97;;;0.67;;
16965;SDS011;8599;47.852;12.070;2024-02-23T08:54:17;2.20;;;0.50;;
16965;SDS011;8599;47.852;12.070;2024-02-23T08:56:44;1.23;;;0.83;;
16965;SDS011;8599;47.852;12.070;2024-02-23T08:59:11;6.10;;;1.00;;
16965;SDS011;8599;47.852;12.070;2024-02-23T09:01:38;4.03;;;0.70;;
16965;SDS011;8599;47.852;12.070;2024-02-23T09:04:05;0.60;;;0.60;;
16965;SDS011;8599;47.852;12.070;2024-02-23T09:06:31;1.30;;;0.50;;
16965;SDS011;8599;47.852;12.070;2024-02-23T09:09:00;1.47;;;0.60;;
16965;SDS011;8599;47.852;12.070;2024-02-23T09:11:27;1.53;;;0.50;;
16965;SDS011;8599;47.852;12.070;2024-02-23T09:13:53;0.60;;;0.60;;
16965;SDS011;8599;47.852;12.070;2024-02-23T09:16:20;1.20;;;0.70;;
16965;SDS011;8599;47.852;12.070;2024-02-23T09:18:49;0.60;;;0.60;;
16965;SDS011;8599;47.852;12.070;2024-02-23T09:21:16;2.50;;;0.80;;
16965;SDS011;8599;47.852;12.070;2024-02-23T09:23:44;0.60;;;0.60;;
16965;SDS011;8599;47.852;12.070;2024-02-23T09:26:12;1.13;;;0.60;;
16965;SDS011;8599;47.852;12.070;2024-02-23T09:28:39;2.27;;;1.03;;
16965;SDS011;8599;47.852;12.070;2024-02-23T09:31:07;0.93;;;0.83;;
16965;SDS011;8599;47.852;12.070;2024-02-23T09:33:34;2.03;;;0.70;;
16965;SDS011;8599;47.852;12.070;2024-02-23T09:36:00;1.77;;;0.90;;
16965;SDS011;8599;47.852;12.070;2024-02-23T09:38:27;4.37;;;0.80;;
16965;SDS011;8599;47.852;12.070;2024-02-23T09:40:57;0.43;;;0.43;;
16965;SDS011;8599;47.852;12.070;2024-02-23T09:43:25;0.40;;;0.40;;
16965;SDS011;8599;47.852;12.070;2024-02-23T09:45:57;1.73;;;0.53;;
16965;SDS011;8599;47.852;12.070;2024-02-23T09:48:24;0.83;;;0.70;;
16965;SDS011;8599;47.852;12.070;2024-02-23T09:50:51;2.40;;;0.67;;
16965;SDS011;8599;47.852;12.070;2024-02-23T09:53:19;0.50;;;0.50;;
16965;SDS011;8599;47.852;12.070;2024-02-23T09:55:47;2.30;;;0.70;;
16965;SDS011;8599;47.852;12.070;2024-02-23T09:58:16;3.97;;;0.70;;
16965;SDS011;8599;47.852;12.070;2024-02-23T10:00:45;1.23;;;0.67;;
16965;SDS011;8599;47.852;12.070;2024-02-23T10:03:12;0.50;;;0.50;;
16965;SDS011;8599;47.852;12.070;2024-02-23T10:05:39;8.23;;;2.50;;
16965;SDS011;8599;47.852;12.070;2024-02-23T10:08:06;1.23;;;1.17;;
16965;SDS011;8599;47.852;12.070;2024-02-23T10:10:33;4.10;;;1.00;;
16965;SDS011;8599;47.852;12.070;2024-02-23T10:13:00;1.07;;;0.70;;
16965;SDS011;8599;47.852;12.070;2024-02-23T10:15:29;3.83;;;0.77;;
16965;SDS011;8599;47.852;12.070;2024-02-23T10:17:58;1.23;;;0.70;;
16965;SDS011;8599;47.852;12.070;2024-02-23T10:20:25;1.23;;;0.80;;
16965;SDS011;8599;47.852;12.070;2024-02-23T10:22:52;3.77;;;0.70;;
16965;SDS011;8599;47.852;12.070;2024-02-23T10:25:19;0.90;;;0.70;;
16965;SDS011;8599;47.852;12.070;2024-02-23T10:27:46;0.30;;;0.30;;
16965;SDS011;8599;47.852;12.070;2024-02-23T10:30:13;0.40;;;0.40;;
16965;SDS011;8599;47.852;12.070;2024-02-23T10:32:41;0.50;;;0.50;;
16965;SDS011;8599;47.852;12.070;2024-02-23T10:35:11;1.73;;;0.57;;
16965;SDS011;8599;47.852;12.070;2024-02-23T10:37:41;1.17;;;0.87;;
16965;SDS011;8599;47.852;12.070;2024-02-23T10:40:09;0.67;;;0.67;;
16965;SDS011;8599;47.852;12.070;2024-02-23T10:42:38;2.03;;;1.53;;
16965;SDS011;8599;47.852;12.070;2024-02-23T10:45:07;5.43;;;1.07;;
16965;SDS011;8599;47.852;12.070;2024-02-23T10:47:34;3.33;;;1.00;;
16965;SDS011;8599;47.852;12.070;2024-02-23T10:50:03;3.07;;;1.20;;
16965;SDS011;8599;47.852;12.070;2024-02-23T10:52:33;4.00;;;1.30;;
16965;SDS011;8599;47.852;12.070;2024-02-23T10:55:01;2.60;;;0.90;;
16965;SDS011;8599;47.852;12.070;2024-02-23T10:57:29;0.80;;;0.80;;
16965;SDS011;8599;47.852;12.070;2024-02-23T10:59:57;3.97;;;1.80;;
16965;SDS011;8599;47.852;12.070;2024-02-23T11:02:24;6.47;;;2.13;;
16965;SDS011;8599;47.852;12.070;2024-02-23T11:04:54;0.83;;;0.77;;
16965;SDS011;8599;47.852;12.070;2024-02-23T11:07:23;2.07;;;1.00;;
16965;SDS011;8599;47.852;12.070;2024-02-23T11:09:52;0.60;;;0.60;;
16965;SDS011;8599;47.852;12.070;2024-02-23T11:12:23;0.30;;;0.30;;
16965;SDS011;8599;47.852;12.070;2024-02-23T11:14:50;7.63;;;1.20;;
16965;SDS011;8599;47.852;12.070;2024-02-23T11:17:17;12.77;;;3.27;;
16965;SDS011;8599;47.852;12.070;2024-02-23T11:19:45;20.33;;;4.80;;
16965;SDS011;8599;47.852;12.070;2024-02-23T11:22:15;10.13;;;2.90;;
16965;SDS011;8599;47.852;12.070;2024-02-23T11:24:51;1.63;;;0.77;;
16965;SDS011;8599;47.852;12.070;2024-02-23T11:27:19;6.37;;;2.03;;
16965;SDS011;8599;47.852;12.070;2024-02-23T11:29:46;1.30;;;0.97;;
16965;SDS011;8599;47.852;12.070;2024-02-23T11:32:14;3.00;;;0.90;;
16965;SDS011;8599;47.852;12.070;2024-02-23T11:34:41;1.23;;;0.90;;
16965;SDS011;8599;47.852;12.070;2024-02-23T11:37:09;11.63;;;3.37;;
16965;SDS011;8599;47.852;12.070;2024-02-23T11:39:36;26.87;;;4.40;;
16965;SDS011;8599;47.852;12.070;2024-02-23T11:42:06;4.33;;;1.30;;
16965;SDS011;8599;47.852;12.070;2024-02-23T11:44:33;4.90;;;2.03;;
16965;SDS011;8599;47.852;12.070;2024-02-23T11:47:00;21.93;;;6.20;;
16965;SDS011;8599;47.852;12.070;2024-02-23T11:49:27;6.00;;;1.60;;
16965;SDS011;8599;47.852;12.070;2024-02-23T11:51:55;34.37;;;7.77;;
16965;SDS011;8599;47.852;12.070;2024-02-23T11:54:22;10.77;;;3.83;;
16965;SDS011;8599;47.852;12.070;2024-02-23T11:56:50;12.07;;;4.03;;
16965;SDS011;8599;47.852;12.070;2024-02-23T11:59:19;12.30;;;3.17;;
16965;SDS011;8599;47.852;12.070;2024-02-23T12:01:46;27.30;;;4.57;;
16965;SDS011;8599;47.852;12.070;2024-02-23T12:04:13;17.17;;;5.07;;
16965;SDS011;8599;47.852;12.070;2024-02-23T12:06:41;11.63;;;4.03;;
16965;SDS011;8599;47.852;12.070;2024-02-23T12:09:08;9.07;;;3.30;;
16965;SDS011;8599;47.852;12.070;2024-02-23T12:11:37;4.37;;;1.83;;
16965;SDS011;8599;47.852;12.070;2024-02-23T12:14:04;6.40;;;2.77;;
16965;SDS011;8599;47.852;12.070;2024-02-23T12:16:34;3.60;;;1.63;;
16965;SDS011;8599;47.852;12.070;2024-02-23T12:19:01;2.60;;;1.47;;
16965;SDS011;8599;47.852;12.070;2024-02-23T12:21:28;6.13;;;1.20;;
16965;SDS011;8599;47.852;12.070;2024-02-23T12:23:55;15.50;;;1.50;;
16965;SDS011;8599;47.852;12.070;2024-02-23T12:26:22;4.33;;;1.93;;
16965;SDS011;8599;47.852;12.070;2024-02-23T12:28:49;2.80;;;0.90;;
16965;SDS011;8599;47.852;12.070;2024-02-23T12:31:16;7.17;;;2.40;;
16965;SDS011;8599;47.852;12.070;2024-02-23T12:33:52;32.90;;;6.30;;
16965;SDS011;8599;47.852;12.070;2024-02-23T12:36:18;6.43;;;3.37;;
16965;SDS011;8599;47.852;12.070;2024-02-23T12:38:45;14.20;;;4.00;;
16965;SDS011;8599;47.852;12.070;2024-02-23T12:41:12;9.27;;;3.10;;
16965;SDS011;8599;47.852;12.070;2024-02-23T12:43:39;6.90;;;2.47;;
16965;SDS011;8599;47.852;12.070;2024-02-23T12:46:06;20.13;;;5.30;;
16965;SDS011;8599;47.852;12.070;2024-02-23T12:48:33;17.57;;;3.60;;
16965;SDS011;8599;47.852;12.070;2024-02-23T12:51:02;11.10;;;2.63;;
16965;SDS011;8599;47.852;12.070;2024-02-23T12:53:30;6.20;;;2.50;;
16965;SDS011;8599;47.852;12.070;2024-02-23T12:55:59;5.83;;;1.73;;
16965;SDS011;8599;47.852;12.070;2024-02-23T12:58:27;19.60;;;3.40;;
16965;SDS011;8599;47.852;12.070;2024-02-23T13:00:54;4.27;;;1.70;;
16965;SDS011;8599;47.852;12.070;2024-02-23T13:03:22;8.40;;;3.67;;
16965;SDS011;8599;47.852;12.070;2024-02-23T13:05:49;16.83;;;3.80;;
16965;SDS011;8599;47.852;12.070;2024-02-23T13:08:18;8.80;;;2.83;;
16965;SDS011;8599;47.852;12.070;2024-02-23T13:10:44;33.00;;;6.67;;
16965;SDS011;8599;47.852;12.070;2024-02-23T13:13:12;6.00;;;3.33;;
16965;SDS011;8599;47.852;12.070;2024-02-23T13:15:39;9.30;;;2.50;;
16965;SDS011;8599;47.852;12.070;2024-02-23T13:18:06;16.30;;;4.00;;
16965;SDS011;8599;47.852;12.070;2024-02-23T13:20:34;16.10;;;4.23;;
16965;SDS011;8599;47.852;12.070;2024-02-23T13:23:00;3.83;;;1.37;;
16965;SDS011;8599;47.852;12.070;2024-02-23T13:25:29;6.80;;;2.60;;
16965;SDS011;8599;47.852;12.070;2024-02-23T13:27:55;20.60;;;4.77;;
16965;SDS011;8599;47.852;12.070;2024-02-23T13:30:22;17.23;;;4.17;;
16965;SDS011;8599;47.852;12.070;2024-02-23T13:32:49;16.20;;;4.40;;
16965;SDS011;8599;47.852;12.070;2024-02-23T13:35:16;14.90;;;2.40;;
16965;SDS011;8599;47.852;12.070;2024-02-23T13:37:43;6.67;;;3.07;;
16965;SDS011;8599;47.852;12.070;2024-02-23T13:40:10;9.17;;;3.20;;
16965;SDS011;8599;47.852;12.070;2024-02-23T13:42:38;3.90;;;2.10;;
16965;SDS011;8599;47.852;12.070;2024-02-23T13:45:06;2.37;;;1.60;;
16965;SDS011;8599;47.852;12.070;2024-02-23T13:47:34;1.57;;;1.13;;
16965;SDS011;8599;47.852;12.070;2024-02-23T13:50:00;4.50;;;0.80;;
16965;SDS011;8599;47.852;12.070;2024-02-23T13:52:27;0.87;;;0.80;;
16965;SDS011;8599;47.852;12.070;2024-02-23T13:54:55;4.83;;;1.47;;
16965;SDS011;8599;47.852;12.070;2024-02-23T13:57:22;1.27;;;1.00;;
16965;SDS011;8599;47.852;12.070;2024-02-23T13:59:50;2.20;;;1.17;;
16965;SDS011;8599;47.852;12.070;2024-02-23T14:02:23;3.33;;;2.20;;
16965;SDS011;8599;47.852;12.070;2024-02-23T14:04:51;3.73;;;2.07;;
16965;SDS011;8599;47.852;12.070;2024-02-23T14:07:18;1.67;;;1.23;;
16965;SDS011;8599;47.852;12.070;2024-02-23T14:09:45;4.30;;;3.00;;
16965;SDS011;8599;47.852;12.070;2024-02-23T14:12:12;2.63;;;2.00;;
16965;SDS011;8599;47.852;12.070;2024-02-23T14:14:39;3.23;;;2.27;;
16965;SDS011;8599;47.852;12.070;2024-02-23T14:17:08;5.57;;;2.47;;
16965;SDS011;8599;47.852;12.070;2024-02-23T14:19:34;9.17;;;4.17;;
16965;SDS011;8599;47.852;12.070;2024-02-23T14:22:01;9.03;;;3.63;;
16965;SDS011;8599;47.852;12.070;2024-02-23T14:24:28;7.30;;;3.30;;
16965;SDS011;8599;47.852;12.070;2024-02-23T14:26:55;17.03;;;7.03;;
16965;SDS011;8599;47.852;12.070;2024-02-23T14:29:22;3.10;;;1.73;;
16965;SDS011;8599;47.852;12.070;2024-02-23T14:31:48;2.00;;;1.40;;
16965;SDS011;8599;47.852;12.070;2024-02-23T14:34:16;3.73;;;1.23;;
16965;SDS011;8599;47.852;12.070;2024-02-23T14:36:45;15.27;;;4.73;;
16965;SDS011;8599;47.852;12.070;2024-02-23T14:39:11;2.77;;;1.50;;
16965;SDS011;8599;47.852;12.070;2024-02-23T14:41:38;7.43;;;2.80;;
16965;SDS011;8599;47.852;12.070;2024-02-23T14:44:05;19.63;;;6.73;;
16965;SDS011;8599;47.852;12.070;2024-02-23T14:46:32;15.13;;;5.00;;